Time;durP1;ratioP1;P1;durP2;ratioP2;P2;SDS_P1;SDS_P2;PMS_P1;PMS_P2;Temp;Humidity;BMP_temperature;BMP_pressure;BME280_temperature;BME280_humidity;BME280_pressure;Samples;Min_cycle;Max_cycle;Signal;HPM_P1;HPM_P2
2022/01/26 00:07:40;;;;;;;51.88;24.50;;;2.50;99.90;;;3.13;100.00;102153.53;5036108;28;20083;-73
2022/01/26 00:10:06;;;;;;;48.40;24.15;;;2.50;99.90;;;3.16;100.00;102147.47;5036179;28;20045;-72
2022/01/26 00:12:32;;;;;;;47.17;23.15;;;2.50;99.90;;;3.16;100.00;102148.31;5035832;28;20120;-73
2022/01/26 00:14:58;;;;;;;47.85;22.55;;;2.50;99.90;;;3.14;100.00;102150.53;5036130;28;20654;-75
2022/01/26 00:17:24;;;;;;;51.63;23.80;;;2.50;99.90;;;3.16;100.00;102145.56;5036052;28;20434;-74
2022/01/26 00:20:13;;;;;;;54.10;25.20;;;2.50;99.90;;;3.20;100.00;102148.59;5036311;28;20041;-73
2022/01/26 00:26:02;;;;;;;53.60;24.77;;;2.50;99.90;;;3.18;100.00;102161.84;5036135;28;20049;-74
2022/01/26 00:38:48;;;;;;;57.80;25.63;;;2.50;99.90;;;3.22;100.00;102162.13;5056357;28;20174;-74
2022/01/26 00:41:45;;;;;;;56.17;24.95;;;2.50;99.90;;;3.22;100.00;102160.19;5055900;28;20057;-74
2022/01/26 00:44:15;;;;;;;62.10;25.88;;;2.50;99.90;;;3.24;100.00;102149.72;5054730;28;20045;-74
2022/01/26 00:46:47;;;;;;;54.78;25.88;;;2.50;99.90;;;3.27;100.00;102151.94;5054230;28;20090;-73
2022/01/26 00:49:16;;;;;;;62.30;26.80;;;2.60;99.90;;;3.25;100.00;102164.31;5054362;28;20067;-73
2022/01/26 00:51:42;;;;;;;58.33;25.52;;;2.60;99.90;;;3.28;100.00;102156.34;5054529;28;20048;-74
2022/01/26 00:54:09;;;;;;;59.10;25.60;;;2.60;99.90;;;3.29;100.00;102152.47;5054110;28;20029;-71
2022/01/26 00:56:36;;;;;;;54.83;24.98;;;2.60;99.90;;;3.28;100.00;102141.69;5054129;28;20020;-72
2022/01/26 00:59:05;;;;;;;59.05;27.17;;;2.50;99.90;;;3.26;100.00;102136.47;5054578;28;20056;-73
2022/01/26 01:01:32;;;;;;;58.70;27.30;;;2.50;99.90;;;3.26;100.00;102128.19;5053798;28;20037;-74
2022/01/26 01:03:58;;;;;;;72.80;30.55;;;2.50;99.90;;;3.30;100.00;102122.94;5054338;28;20048;-73
2022/01/26 01:06:30;;;;;;;77.15;32.40;;;2.60;99.90;;;3.37;100.00;102132.59;5053993;28;20044;-73
2022/01/26 01:08:58;;;;;;;70.70;30.42;;;2.60;99.90;;;3.38;100.00;102128.75;5054087;28;20518;-73
2022/01/26 01:11:27;;;;;;;70.63;31.27;;;2.60;99.90;;;3.38;100.00;102127.91;5053805;28;20374;-73
2022/01/26 01:13:55;;;;;;;67.68;29.08;;;2.60;99.90;;;3.33;100.00;102133.44;5054142;28;20025;-74
2022/01/26 01:16:23;;;;;;;75.20;32.42;;;2.60;99.90;;;3.38;100.00;102131.50;5036031;28;20021;-74
2022/01/26 01:19:26;;;;;;;82.00;31.92;;;2.60;99.90;;;3.38;100.00;102128.75;5054323;28;20040;-73
2022/01/26 01:22:05;;;;;;;81.35;31.42;;;2.70;99.90;;;3.39;100.00;102133.16;5053895;28;20032;-74
2022/01/26 01:29:59;;;;;;;74.72;32.85;;;2.70;99.90;;;3.44;100.00;102135.09;5034282;28;20033;-73
2022/01/26 01:32:38;;;;;;;70.70;29.00;;;2.70;99.90;;;3.43;100.00;102134.28;5033866;28;20061;-73
2022/01/26 01:35:10;;;;;;;74.95;30.58;;;2.70;99.90;;;3.44;100.00;102137.84;5033550;28;20033;-73
2022/01/26 01:37:41;;;;;;;73.32;32.70;;;2.70;99.90;;;3.40;100.00;102132.06;5049204;28;20038;-74
2022/01/26 01:40:09;;;;;;;73.03;32.58;;;2.70;99.90;;;3.43;100.00;102130.69;5033669;28;20045;-73
2022/01/26 01:42:37;;;;;;;74.47;31.85;;;2.70;99.90;;;3.44;100.00;102133.16;5033818;28;20025;-72
2022/01/26 01:45:04;;;;;;;81.57;34.35;;;2.70;99.90;;;3.45;100.00;102134.00;5033395;28;20493;-72
2022/01/26 01:47:30;;;;;;;72.38;31.13;;;2.70;99.90;;;3.47;100.00;102142.81;5033918;28;20049;-73
2022/01/26 01:50:02;;;;;;;83.72;31.90;;;2.70;99.90;;;3.48;100.00;102141.72;5033390;28;20029;-75
2022/01/26 01:52:28;;;;;;;82.40;32.85;;;2.70;99.90;;;3.47;100.00;102138.13;5033670;28;20025;-74
2022/01/26 01:55:03;;;;;;;72.03;31.95;;;2.70;99.90;;;3.47;100.00;102135.38;5033550;28;20044;-73
2022/01/26 01:57:28;;;;;;;81.97;33.87;;;2.70;99.90;;;3.44;100.00;102133.16;5033540;28;20029;-74
2022/01/26 01:59:58;;;;;;;87.80;35.63;;;2.70;99.90;;;3.42;100.00;102126.25;5032943;28;20382;-73
2022/01/26 02:02:24;;;;;;;86.05;34.08;;;2.70;99.90;;;3.41;100.00;102122.66;5033233;28;20068;-73
2022/01/26 02:04:50;;;;;;;85.07;33.80;;;2.70;99.90;;;3.43;100.00;102125.16;5033024;28;20507;-73
2022/01/26 02:07:16;;;;;;;89.25;34.75;;;2.70;99.90;;;3.44;100.00;102118.50;5033130;28;20029;-73
2022/01/26 02:09:42;;;;;;;86.53;34.95;;;2.70;99.90;;;3.44;100.00;102105.53;5032973;28;20057;-73
2022/01/26 02:12:20;;;;;;;90.47;35.10;;;2.70;99.90;;;3.47;100.00;102115.19;5032967;28;20045;-74
2022/01/26 02:14:54;;;;;;;80.15;33.20;;;2.70;99.90;;;3.48;100.00;102120.47;5033032;28;20361;-73
2022/01/26 02:17:41;;;;;;;97.13;36.58;;;2.70;99.90;;;3.50;100.00;102122.97;5033248;28;20037;-72
2022/01/26 02:54:24;;;;;;;95.53;38.53;;;2.80;99.90;;;3.53;98.19;102101.13;5052490;28;20028;-74
2022/01/26 02:56:36;;;;;;;94.63;37.50;;;2.80;99.90;;;3.53;98.15;102092.03;5051292;28;20051;-72
2022/01/26 03:07:01;;;;;;;96.30;39.08;;;2.70;99.90;;;3.36;99.14;102072.97;5052158;28;20159;-74
2022/01/26 03:09:35;;;;;;;90.22;37.67;;;2.70;99.90;;;3.44;99.34;102079.84;5052214;28;20032;-73
2022/01/26 03:12:04;;;;;;;89.30;37.95;;;2.70;99.90;;;3.57;97.33;102071.00;5033823;28;20033;-72
2022/01/26 03:14:46;;;;;;;96.93;37.35;;;2.70;99.90;;;3.30;98.79;102068.53;5052186;28;20395;-73
2022/01/26 03:18:16;;;;;;;93.88;37.38;;;2.70;99.90;;;3.38;98.07;102058.84;5051565;28;20029;-72
2022/01/26 03:20:08;;;;;;;95.50;37.35;;;2.70;99.90;;;3.44;97.25;102052.22;5048357;28;20124;-74
2022/01/26 03:35:56;;;;;;;86.70;34.00;;;2.60;99.90;;;3.33;99.04;102045.88;5031741;28;20442;-72
2022/01/26 03:38:27;;;;;;;93.82;36.67;;;2.60;99.90;;;3.33;98.64;102037.59;5031792;28;20037;-72
2022/01/26 03:41:19;;;;;;;89.10;35.45;;;2.60;99.90;;;3.24;98.60;102025.47;5036650;28;20021;-73
2022/01/26 03:43:43;;;;;;;89.28;35.88;;;2.60;99.90;;;3.28;98.83;102017.44;5034869;28;20068;-73
2022/01/26 03:46:09;;;;;;;92.40;35.17;;;2.60;99.90;;;3.28;98.66;102022.94;5035243;28;20037;-74
2022/01/26 03:48:35;;;;;;;91.63;37.65;;;2.60;99.90;;;3.27;98.51;102030.44;5033604;28;20045;-74
2022/01/26 03:51:01;;;;;;;92.68;37.30;;;2.60;99.90;;;3.22;98.59;102024.06;5034944;28;20029;-72
2022/01/26 03:53:27;;;;;;;91.15;35.97;;;2.60;99.90;;;3.26;98.46;102041.72;5034225;28;20033;-74
2022/01/26 03:55:53;;;;;;;95.55;37.75;;;2.60;99.90;;;3.26;98.30;102042.56;5047908;28;20040;-73
2022/01/26 03:58:20;;;;;;;92.35;34.92;;;2.60;99.90;;;3.27;98.17;102038.72;5035244;28;20085;-73
2022/01/26 04:00:46;;;;;;;87.85;34.70;;;2.60;99.90;;;3.29;98.08;102035.66;5062828;28;20033;-73
2022/01/26 04:03:13;;;;;;;86.20;36.08;;;2.60;99.90;;;3.20;98.78;102035.41;5057663;23;20060;-80
2022/01/26 04:05:39;;;;;;;92.78;37.72;;;2.60;99.90;;;3.17;98.17;102035.94;5034344;28;20483;-80
2022/01/26 04:08:28;;;;;;;89.03;37.03;;;2.50;99.90;;;3.15;98.44;102040.91;5015747;28;20029;-81
2022/01/26 04:13:30;;;;;;;94.53;34.95;;;2.50;99.90;;;3.22;97.97;102041.47;5032566;28;19921;-78
2022/01/26 04:15:56;;;;;;;93.32;37.58;;;2.50;99.90;;;3.21;97.72;102045.34;5033804;28;20032;-79
2022/01/26 04:18:28;;;;;;;91.57;35.45;;;2.50;99.90;;;3.15;98.22;102041.72;5015564;28;20034;-79
2022/01/26 04:21:02;;;;;;;95.95;37.47;;;2.50;99.90;;;3.12;98.66;102041.44;5016342;28;20040;-80
2022/01/26 04:23:38;;;;;;;93.60;38.00;;;2.50;99.90;;;3.08;98.24;102046.69;5032449;28;20021;-80
2022/01/26 04:26:04;;;;;;;104.88;40.38;;;2.50;99.90;;;3.09;98.12;102053.03;5024483;28;20033;-80
2022/01/26 04:28:41;;;;;;;129.38;48.45;;;2.50;99.90;;;3.16;98.47;102053.59;5057697;28;20033;-79
2022/01/26 04:31:10;;;;;;;102.25;39.75;;;2.50;99.90;;;3.08;98.68;102060.47;5056325;28;20028;-79
2022/01/26 04:33:39;;;;;;;105.35;39.88;;;2.50;99.90;;;3.19;98.57;102067.69;5054739;28;20043;-79
2022/01/26 04:36:09;;;;;;;97.43;41.33;;;2.50;99.90;;;3.11;98.88;102050.84;5055306;28;20029;-80
2022/01/26 04:38:46;;;;;;;108.90;42.50;;;2.50;99.90;;;3.11;98.46;102050.84;5040181;28;20132;-79
2022/01/26 04:43:52;;;;;;;95.72;38.88;;;2.50;99.90;;;3.14;98.23;102055.81;5057753;28;20130;-80
2022/01/26 04:46:21;;;;;;;106.05;40.92;;;2.50;99.90;;;3.04;98.93;102056.63;5055950;28;20029;-81
2022/01/26 04:48:46;;;;;;;106.90;42.95;;;2.50;99.90;;;3.04;98.35;102055.81;5038067;28;20373;-80
2022/01/26 04:51:14;;;;;;;102.75;40.72;;;2.40;99.90;;;3.04;98.58;102053.03;5056962;28;20055;-78
2022/01/26 04:53:40;;;;;;;107.78;42.92;;;2.40;99.90;;;3.17;98.05;102061.63;5063010;28;20032;-81
2022/01/26 04:56:06;;;;;;;109.85;42.40;;;2.50;99.90;;;3.08;98.31;102057.72;5039761;28;20036;-77
2022/01/26 04:58:31;;;;;;;105.30;43.60;;;2.50;99.90;;;3.06;98.28;102053.59;5056137;28;20033;-81
2022/01/26 05:00:57;;;;;;;104.57;41.50;;;2.50;99.90;;;3.01;98.28;102057.19;5057042;28;20052;-81
2022/01/26 05:03:23;;;;;;;108.85;44.15;;;2.50;99.90;;;3.07;98.18;102052.50;5055971;28;20072;-80
2022/01/26 05:05:49;;;;;;;113.15;44.35;;;2.40;99.90;;;3.03;98.32;102052.22;5056149;28;20029;-80
2022/01/26 05:08:14;;;;;;;106.88;43.78;;;2.40;99.90;;;3.06;97.87;102059.94;5056832;28;20032;-79
2022/01/26 05:10:46;;;;;;;110.45;43.35;;;2.40;99.90;;;3.13;97.84;102052.22;5055782;28;20442;-81
2022/01/26 05:13:14;;;;;;;112.25;42.47;;;2.40;99.90;;;3.05;98.18;102058.28;5038744;28;20119;-82
2022/01/26 05:15:42;;;;;;;120.35;46.10;;;2.40;99.90;;;3.04;98.52;102055.81;5055418;28;20033;-80
2022/01/26 05:18:10;;;;;;;112.82;43.03;;;2.40;99.90;;;3.08;98.19;102062.44;5055908;28;20033;-82
2022/01/26 05:20:36;;;;;;;116.95;46.38;;;2.40;99.90;;;3.07;97.92;102082.84;5054922;28;20029;-81
2022/01/26 05:23:02;;;;;;;123.25;48.83;;;2.40;99.90;;;3.15;98.01;102101.63;5055444;28;20027;-80
2022/01/26 05:25:28;;;;;;;130.00;49.58;;;2.40;99.90;;;3.05;97.53;102098.88;5051756;28;20431;-82
2022/01/26 05:27:57;;;;;;;147.35;52.22;;;2.40;99.90;;;3.09;97.81;102091.69;5050534;28;20370;-82
2022/01/26 05:30:24;;;;;;;148.55;55.63;;;2.40;99.90;;;3.24;96.38;102093.66;5034587;28;20025;-79
2022/01/26 05:32:54;;;;;;;133.25;50.63;;;2.40;99.90;;;3.28;96.74;102103.03;5034066;28;20553;-81
2022/01/26 05:35:20;;;;;;;143.35;53.80;;;2.50;99.90;;;3.17;96.85;102096.69;5053547;28;20036;-82
2022/01/26 05:37:46;;;;;;;148.60;57.17;;;2.50;99.90;;;3.14;97.40;102088.94;5042846;28;20048;-79
2022/01/26 05:40:13;;;;;;;138.13;52.00;;;2.50;99.90;;;3.15;97.74;102091.41;5050558;28;20033;-80
2022/01/26 05:42:41;;;;;;;159.50;58.50;;;2.50;99.90;;;3.19;97.02;102091.72;5048920;28;20033;-79
2022/01/26 05:45:18;;;;;;;151.75;55.92;;;2.50;99.90;;;3.15;97.42;102085.06;5052956;28;20106;-81
2022/01/26 05:47:44;;;;;;;156.75;57.55;;;2.50;99.90;;;3.09;97.87;102072.38;5036513;28;20032;-78
2022/01/26 05:50:10;;;;;;;171.20;60.80;;;2.50;99.90;;;3.04;97.71;102064.91;5035012;28;20493;-81
2022/01/26 05:52:36;;;;;;;164.75;59.45;;;2.40;99.90;;;3.06;97.88;102064.63;5034779;28;20159;-78
2022/01/26 05:55:05;;;;;;;167.23;59.58;;;2.40;99.90;;;3.15;97.92;102071.25;5035939;28;20503;-79
2022/01/26 05:57:31;;;;;;;166.07;63.45;;;2.40;99.90;;;2.96;98.10;102064.59;5035362;28;20044;-80
2022/01/26 06:00:00;;;;;;;164.57;62.55;;;2.40;99.90;;;3.00;98.38;102066.56;5035708;28;20061;-80
2022/01/26 06:02:27;;;;;;;178.68;61.88;;;2.40;99.90;;;3.07;97.86;102050.56;5035890;28;20554;-82
2022/01/26 06:04:55;;;;;;;168.82;60.80;;;2.40;99.90;;;3.12;97.44;102046.97;5038362;28;20476;-83
2022/01/26 06:07:24;;;;;;;170.18;61.03;;;2.40;99.90;;;3.10;97.87;102040.91;5041350;28;20026;-82
2022/01/26 06:09:50;;;;;;;169.50;62.05;;;2.40;99.90;;;3.05;98.13;102029.88;5038543;28;20108;-83
2022/01/26 06:12:16;;;;;;;159.30;60.30;;;2.40;99.90;;;3.06;98.14;102012.19;5035146;28;20030;-79
2022/01/26 06:14:43;;;;;;;173.63;63.17;;;2.40;99.90;;;3.06;98.64;102009.41;5051961;28;20083;-79
2022/01/26 06:17:08;;;;;;;165.38;60.15;;;2.40;99.90;;;3.03;98.75;102016.31;5036104;28;20496;-78
2022/01/26 06:19:35;;;;;;;162.13;57.58;;;2.40;99.90;;;3.08;98.77;102024.59;5035678;28;20025;-79
2022/01/26 06:22:00;;;;;;;164.75;62.53;;;2.40;99.90;;;3.08;98.21;102030.13;5051032;28;20025;-79
2022/01/26 06:24:26;;;;;;;167.55;62.72;;;2.40;99.90;;;3.20;98.20;102049.19;5035491;28;20401;-78
2022/01/26 06:26:52;;;;;;;169.57;59.13;;;2.40;99.90;;;3.23;97.67;102053.34;5051679;28;20040;-80
2022/01/26 06:29:21;;;;;;;162.65;60.13;;;2.40;99.90;;;3.28;97.38;102045.03;5054920;28;20064;-81
2022/01/26 06:31:47;;;;;;;163.23;60.42;;;2.50;99.90;;;3.31;97.52;102045.31;5059484;28;20040;-83
2022/01/26 06:34:13;;;;;;;177.15;63.25;;;2.50;99.90;;;3.31;96.38;102050.03;5054525;28;20029;-79
2022/01/26 06:36:43;;;;;;;161.00;60.15;;;2.50;99.90;;;3.32;96.70;102059.97;5037614;28;20033;-77
2022/01/26 06:39:14;;;;;;;167.70;59.53;;;2.50;99.90;;;3.27;96.33;102060.81;5042244;28;20084;-76
2022/01/26 06:41:49;;;;;;;161.73;60.55;;;2.50;99.90;;;3.25;97.21;102056.63;5063483;28;20075;-79
2022/01/26 06:44:35;;;;;;;154.77;57.87;;;2.50;99.90;;;3.28;96.41;102058.84;5057620;28;20029;-78
2022/01/26 06:49:38;;;;;;;161.00;57.38;;;2.50;99.90;;;3.27;97.89;102044.25;5056888;28;20099;-78
2022/01/26 06:52:05;;;;;;;167.52;57.10;;;2.50;99.90;;;3.24;98.26;102042.03;5059477;28;20056;-77
2022/01/26 06:54:34;;;;;;;167.77;57.83;;;2.50;99.90;;;3.12;97.48;102041.44;5062956;28;20033;-78
2022/01/26 06:57:02;;;;;;;158.38;55.45;;;2.50;99.90;;;3.09;97.84;102050.28;5062941;28;20039;-79
2022/01/26 06:59:28;;;;;;;157.50;55.70;;;2.50;99.90;;;3.13;97.99;102037.59;5053897;28;20475;-78
2022/01/26 07:01:54;;;;;;;151.63;55.17;;;2.50;99.90;;;3.10;98.21;102022.41;5053056;28;20076;-79
2022/01/26 07:04:19;;;;;;;158.88;56.83;;;2.40;99.90;;;3.08;98.50;102015.50;5053680;28;20044;-77
2022/01/26 07:06:45;;;;;;;165.15;57.08;;;2.40;99.90;;;3.18;98.24;102018.25;5036909;28;20033;-79
2022/01/26 07:09:18;;;;;;;163.70;57.90;;;2.40;99.90;;;3.11;98.04;102024.03;5054269;28;20032;-79
2022/01/26 07:11:47;;;;;;;156.32;56.83;;;2.40;99.90;;;3.08;98.72;102032.06;5053669;28;20032;-79
2022/01/26 07:14:26;;;;;;;160.30;54.92;;;2.40;99.90;;;3.21;98.22;102034.28;5052992;28;20029;-78
2022/01/26 07:19:51;;;;;;;153.90;56.47;;;2.50;99.90;;;3.25;96.61;102059.41;5055107;28;20506;-79
2022/01/26 07:22:16;;;;;;;168.18;58.78;;;2.50;99.90;;;3.16;96.91;102065.47;5053170;28;20021;-78
2022/01/26 07:24:42;;;;;;;173.77;59.97;;;2.50;99.90;;;3.19;96.40;102066.84;5036492;28;20114;-79
2022/01/26 07:27:15;;;;;;;169.02;60.53;;;2.50;99.90;;;3.15;96.49;102062.97;5036497;28;20104;-80
2022/01/26 07:29:41;;;;;;;166.55;61.83;;;2.50;99.90;;;3.18;96.44;102046.69;5030238;28;20025;-78
2022/01/26 07:32:08;;;;;;;165.18;61.22;;;2.50;99.90;;;3.14;96.74;102040.09;5039193;28;20447;-78
2022/01/26 07:34:34;;;;;;;176.13;63.75;;;2.50;99.90;;;3.17;96.22;102056.09;5036551;28;20063;-78
2022/01/26 07:37:05;;;;;;;168.57;61.40;;;2.50;99.90;;;3.17;96.65;102060.78;5054666;28;20029;-78
2022/01/26 07:39:43;;;;;;;157.93;56.80;;;2.50;99.90;;;3.19;96.75;102064.94;5054516;28;20029;-79
2022/01/26 07:42:11;;;;;;;170.40;61.10;;;2.50;99.90;;;3.15;97.39;102057.47;5036943;28;20031;-79
2022/01/26 07:44:37;;;;;;;164.45;58.20;;;2.50;99.90;;;3.22;96.67;102057.19;5055130;28;20102;-78
2022/01/26 07:47:04;;;;;;;162.07;57.15;;;2.50;99.90;;;3.23;95.79;102058.84;5036168;28;20029;-80
2022/01/26 07:49:36;;;;;;;159.23;56.88;;;2.50;99.90;;;3.18;96.79;102057.75;5054048;28;20055;-79
2022/01/26 07:52:02;;;;;;;163.20;56.83;;;2.50;99.90;;;3.15;96.32;102074.03;5053941;28;20034;-79
2022/01/26 07:54:27;;;;;;;152.52;55.90;;;2.50;99.90;;;3.18;96.91;102073.47;5051708;28;20029;-78
2022/01/26 07:56:54;;;;;;;164.90;58.28;;;2.50;99.90;;;3.16;97.18;102078.44;5054267;28;20380;-77
2022/01/26 07:59:20;;;;;;;162.02;58.25;;;2.50;99.90;;;3.14;97.68;102087.03;5036238;28;20033;-82
2022/01/26 08:01:46;;;;;;;155.55;55.22;;;2.50;99.90;;;3.15;97.36;102083.13;5053286;28;20408;-79
2022/01/26 08:04:14;;;;;;;144.77;53.88;;;2.50;99.90;;;3.19;97.43;102064.94;5054080;28;20132;-79
2022/01/26 08:06:40;;;;;;;155.18;55.63;;;2.50;99.90;;;3.17;96.90;102060.78;5057020;28;20040;-78
2022/01/26 08:09:06;;;;;;;150.40;53.92;;;2.40;99.90;;;3.15;97.84;102060.22;5039579;28;20128;-78
2022/01/26 08:11:32;;;;;;;163.27;56.58;;;2.50;99.90;;;3.18;97.55;102057.75;5057674;28;20052;-80
2022/01/26 08:14:00;;;;;;;169.27;57.72;;;2.50;99.90;;;3.07;98.19;102067.13;5060144;28;20549;-79
2022/01/26 08:16:26;;;;;;;151.80;54.70;;;2.40;99.90;;;3.10;98.57;102061.06;5058174;28;20479;-79
2022/01/26 08:18:52;;;;;;;154.07;53.63;;;2.40;99.90;;;3.00;98.62;102060.22;5037515;28;20052;-78
2022/01/26 08:21:19;;;;;;;156.07;54.72;;;2.40;99.90;;;3.08;98.19;102065.22;5054734;28;20037;-81
2022/01/26 08:23:45;;;;;;;160.18;55.75;;;2.40;99.90;;;3.08;97.98;102076.25;5037403;28;20041;-79
2022/01/26 08:26:11;;;;;;;153.45;53.28;;;2.40;99.90;;;3.13;97.58;102081.75;5039837;28;20053;-80
2022/01/26 08:28:41;;;;;;;145.88;52.80;;;2.40;99.90;;;3.15;98.04;102077.63;5043023;28;20040;-78
2022/01/26 08:31:12;;;;;;;152.60;53.88;;;2.40;99.90;;;3.12;98.25;102080.09;5039694;28;20030;-79
2022/01/26 08:33:38;;;;;;;156.10;52.47;;;2.50;99.90;;;3.15;98.15;102074.84;5041961;28;20556;-79
2022/01/26 08:36:04;;;;;;;143.57;52.10;;;2.50;99.90;;;3.15;98.34;102072.09;5041891;28;20115;-80
2022/01/26 08:38:30;;;;;;;159.40;52.53;;;2.50;99.90;;;3.17;98.39;102080.94;5039712;28;20034;-80
2022/01/26 08:41:00;;;;;;;152.85;50.60;;;2.50;99.90;;;3.19;98.06;102102.75;5038600;28;20033;-81
2022/01/26 08:43:29;;;;;;;159.75;51.13;;;2.50;99.90;;;3.18;98.19;102107.44;5042712;28;20378;-79
2022/01/26 08:45:55;;;;;;;144.60;50.65;;;2.50;99.90;;;3.24;97.69;102113.81;5036885;28;20037;-78
2022/01/26 08:48:22;;;;;;;154.20;52.30;;;2.50;99.90;;;3.17;98.44;102104.97;5053654;28;20056;-77
2022/01/26 08:50:51;;;;;;;154.00;53.42;;;2.50;99.90;;;3.16;98.62;102108.81;5053363;28;20036;-78
2022/01/26 08:53:16;;;;;;;144.00;49.20;;;2.50;99.90;;;3.09;98.83;102091.69;5038605;28;20053;-80
2022/01/26 08:55:43;;;;;;;140.52;49.00;;;2.50;99.90;;;3.12;98.84;102085.63;5038727;28;20064;-79
2022/01/26 08:58:09;;;;;;;148.93;51.30;;;2.50;99.90;;;3.12;98.97;102088.38;5039349;28;20113;-79
2022/01/26 09:00:37;;;;;;;138.73;48.72;;;2.50;99.90;;;3.18;98.67;102101.09;5041825;28;20063;-80
2022/01/26 09:03:03;;;;;;;142.85;50.95;;;2.50;99.90;;;3.14;98.49;102095.31;5035837;28;20133;-80
2022/01/26 09:05:29;;;;;;;145.43;51.60;;;2.50;99.90;;;3.09;99.10;102111.00;5038126;28;20075;-77
2022/01/26 09:07:57;;;;;;;148.80;51.63;;;2.50;99.90;;;3.13;99.55;102107.44;5051949;28;20025;-79
2022/01/26 09:10:27;;;;;;;158.85;52.28;;;2.50;99.90;;;3.12;99.38;102116.81;5037556;28;20022;-81
2022/01/26 09:12:56;;;;;;;159.45;52.20;;;2.50;99.90;;;3.09;99.82;102119.28;5035694;28;20034;-81
2022/01/26 09:15:28;;;;;;;151.25;52.60;;;2.50;99.90;;;3.05;99.93;102112.69;5037652;28;20037;-80
2022/01/26 09:18:02;;;;;;;160.43;53.15;;;2.50;99.90;;;3.08;99.48;102109.38;5035208;28;20033;-80
2022/01/26 09:20:34;;;;;;;156.80;52.75;;;2.40;99.90;;;3.13;100.00;102101.94;5051806;28;20044;-81
2022/01/26 09:23:00;;;;;;;151.07;52.17;;;2.50;99.90;;;3.11;100.00;102100.53;5037015;28;20131;-80
2022/01/26 09:25:26;;;;;;;154.18;51.08;;;2.50;99.90;;;3.02;100.00;102099.41;5039198;28;20033;-79
2022/01/26 09:27:52;;;;;;;159.77;54.00;;;2.40;99.90;;;3.07;100.00;102104.94;5035130;28;20037;-79
2022/01/26 09:30:18;;;;;;;171.68;54.15;;;2.50;99.90;;;3.06;100.00;102108.78;5035022;28;20534;-83
2022/01/26 09:32:45;;;;;;;155.02;54.80;;;2.40;99.90;;;3.01;100.00;102100.53;5036749;28;20063;-81
2022/01/26 09:35:13;;;;;;;163.23;50.10;;;2.40;99.90;;;3.17;100.00;102094.75;5035688;28;20420;-80
2022/01/26 09:37:41;;;;;;;158.20;52.45;;;2.50;99.90;;;3.16;100.00;102092.25;5045998;28;20043;-81
2022/01/26 09:40:10;;;;;;;166.32;53.78;;;2.50;99.90;;;3.01;100.00;102093.06;5049113;28;20033;-83
2022/01/26 09:42:37;;;;;;;162.35;53.95;;;2.40;99.90;;;3.08;100.00;102104.66;5067880;28;20028;-79
2022/01/26 09:45:10;;;;;;;163.38;52.10;;;2.50;99.90;;;3.09;100.00;102091.69;5044769;28;20026;-78
2022/01/26 09:47:37;;;;;;;162.25;50.58;;;2.50;99.90;;;3.12;100.00;102102.19;5044010;28;20037;-82
2022/01/26 09:50:05;;;;;;;166.88;51.58;;;2.40;99.90;;;3.13;100.00;102088.13;5038834;28;20030;-81
2022/01/26 09:52:44;;;;;;;143.05;49.05;;;2.50;99.90;;;3.10;100.00;102085.06;5040001;28;20030;-79
2022/01/26 09:55:10;;;;;;;153.38;50.55;;;2.60;99.90;;;3.11;100.00;102083.97;5053066;28;20546;-79
2022/01/26 09:57:41;;;;;;;155.18;49.97;;;2.50;99.90;;;3.15;100.00;102074.03;5037129;28;20080;-80
2022/01/26 10:00:12;;;;;;;165.05;52.65;;;2.50;99.90;;;3.09;100.00;102069.59;5035653;28;20033;-79
2022/01/26 10:02:44;;;;;;;156.57;51.10;;;2.50;99.90;;;3.08;100.00;102067.97;5046791;22;20053;-80
2022/01/26 10:05:16;;;;;;;157.60;50.00;;;2.50;99.90;;;3.18;100.00;102074.31;5045857;28;20057;-78
2022/01/26 10:15:27;;;;;;;146.70;48.88;;;2.60;99.90;;;3.15;100.00;102080.38;5045551;28;20037;-80
2022/01/26 10:16:37;;;;;;;144.18;45.17;;;2.60;99.90;;;3.25;100.00;102078.72;5042847;28;20036;-78
2022/01/26 10:18:58;;;;;;;146.02;45.97;;;2.60;99.90;;;3.29;100.00;102069.63;5041934;28;20033;-78
2022/01/26 10:21:25;;;;;;;140.82;44.42;;;2.70;99.90;;;3.33;100.00;102081.78;5023863;28;20033;-78
2022/01/26 10:23:54;;;;;;;148.43;46.58;;;2.70;99.90;;;3.37;100.00;102069.06;5023988;28;20140;-79
2022/01/26 10:26:21;;;;;;;143.98;47.53;;;2.70;99.90;;;3.40;100.00;102081.53;5035508;28;20057;-78
2022/01/26 10:28:58;;;;;;;146.38;45.65;;;2.80;99.90;;;3.34;100.00;102083.44;5059729;28;20115;-78
2022/01/26 10:31:39;;;;;;;151.32;46.75;;;2.80;99.90;;;3.36;100.00;102091.44;5063064;28;20044;-80
2022/01/26 10:34:16;;;;;;;145.65;48.95;;;2.80;99.90;;;3.39;100.00;102085.38;5063549;28;20065;-79
2022/01/26 10:36:57;;;;;;;139.00;44.65;;;2.80;99.90;;;3.48;100.00;102097.53;5063351;28;20033;-78
2022/01/26 10:39:42;;;;;;;145.60;47.10;;;2.80;99.90;;;3.53;100.00;102103.88;5062413;28;20032;-80
2022/01/26 10:42:13;;;;;;;142.20;46.97;;;2.80;99.90;;;3.51;100.00;102105.25;5062544;28;20207;-80
2022/01/26 10:44:49;;;;;;;154.55;49.17;;;2.90;99.90;;;3.56;100.00;102106.09;5062658;28;20067;-80
2022/01/26 10:47:38;;;;;;;157.90;50.35;;;2.90;99.90;;;3.64;100.00;102101.94;5046370;28;20207;-79
2022/01/26 10:50:43;;;;;;;153.77;47.92;;;2.90;99.90;;;3.63;100.00;102090.06;5043843;28;20064;-80
2022/01/26 10:53:20;;;;;;;151.60;46.75;;;2.90;99.90;;;3.52;100.00;102091.19;5062952;28;20044;-78
2022/01/26 10:55:46;;;;;;;156.48;49.67;;;2.90;99.90;;;3.46;100.00;102100.59;5061767;28;20040;-80
2022/01/26 10:58:16;;;;;;;151.80;48.72;;;2.90;99.90;;;3.63;100.00;102108.56;5062542;28;20091;-79
2022/01/26 11:00:42;;;;;;;154.25;48.05;;;2.90;99.90;;;3.53;100.00;102095.59;5062445;28;20032;-78
2022/01/26 11:03:14;;;;;;;157.70;48.63;;;2.90;99.90;;;3.61;100.00;102089.53;5043779;28;20032;-80
2022/01/26 11:05:40;;;;;;;153.05;50.17;;;2.90;99.90;;;3.67;100.00;102088.41;5062470;28;20037;-81
2022/01/26 11:08:11;;;;;;;162.90;51.65;;;2.90;99.90;;;3.58;100.00;102087.31;5044328;28;20060;-80
2022/01/26 11:10:39;;;;;;;146.73;50.78;;;2.90;99.90;;;3.67;100.00;102106.94;5061307;28;20091;-81
2022/01/26 11:13:07;;;;;;;154.02;50.00;;;3.00;99.90;;;3.61;100.00;102117.16;5062789;28;20502;-80
2022/01/26 11:15:34;;;;;;;146.48;48.08;;;2.90;99.90;;;3.68;100.00;102134.28;5062074;28;20029;-80
2022/01/26 11:18:21;;;;;;;159.38;48.88;;;3.00;99.90;;;3.66;100.00;102138.44;5065543;28;20021;-78
2022/01/26 11:20:54;;;;;;;151.00;48.85;;;2.90;99.90;;;3.65;100.00;102136.78;5064008;28;20029;-78
2022/01/26 11:23:39;;;;;;;161.60;50.88;;;2.90;99.90;;;3.73;100.00;102123.22;5063688;28;20020;-78
2022/01/26 11:26:05;;;;;;;153.18;51.92;;;3.00;99.90;;;3.71;100.00;102119.94;5061142;28;20029;-78
2022/01/26 11:28:31;;;;;;;160.23;52.25;;;3.00;99.90;;;3.57;100.00;102112.44;5061584;28;20028;-80
2022/01/26 11:31:05;;;;;;;167.07;52.58;;;2.90;99.90;;;3.57;100.00;102109.69;5044097;28;20021;-81
2022/01/26 11:33:35;;;;;;;157.40;53.60;;;2.90;99.90;;;3.62;100.00;102091.19;5059153;28;20056;-80
2022/01/26 11:36:05;;;;;;;157.90;49.75;;;2.90;99.90;;;3.57;100.00;102095.88;5063052;28;20048;-80
2022/01/26 11:39:15;;;;;;;146.30;50.45;;;2.90;99.90;;;3.69;100.00;102090.91;5049025;28;20022;-77
2022/01/26 11:47:24;;;;;;;159.63;50.78;;;3.00;99.90;;;3.57;100.00;102099.47;5043875;28;20067;-78
2022/01/26 11:50:09;;;;;;;141.57;50.25;;;2.90;99.90;;;3.70;100.00;102085.09;5059449;28;20088;-81
2022/01/26 11:52:38;;;;;;;157.13;51.63;;;3.00;99.90;;;3.64;100.00;102091.75;5058895;28;20086;-81
2022/01/26 11:55:27;;;;;;;154.63;49.33;;;3.00;99.90;;;3.63;100.00;102100.28;5044826;28;20128;-79
2022/01/26 11:58:04;;;;;;;141.63;47.80;;;3.00;99.90;;;3.87;100.00;102108.84;5053285;28;20060;-78
2022/01/26 12:00:50;;;;;;;141.85;47.35;;;3.00;99.90;;;3.83;100.00;102096.69;5054087;28;20033;-79